sensor_id;sensor_type;location;lat;lon;timestamp;noise_LAeq;noise_LA_min;noise_LA_max;noise_LA01;noise_LA95
76338;Laerm;20358;50.272;19.026;2023-11-19T00:03:03;46.93;35.98;57.57;;
76338;Laerm;20358;50.272;19.026;2023-11-19T00:06:15;48.13;36.74;63.19;;
76338;Laerm;20358;50.272;19.026;2023-11-19T00:09:30;46.79;37.08;59.43;;
76338;Laerm;20358;50.272;19.026;2023-11-19T00:12:39;47.29;36.15;61.51;;
76338;Laerm;20358;50.272;19.026;2023-11-19T00:15:51;46.65;36.89;59.33;;
76338;Laerm;20358;50.272;19.026;2023-11-19T00:18:59;47.10;35.44;61.11;;
76338;Laerm;20358;50.272;19.026;2023-11-19T00:22:12;46.45;36.63;60.21;;
76338;Laerm;20358;50.272;19.026;2023-11-19T00:25:25;46.69;36.61;58.93;;
76338;Laerm;20358;50.272;19.026;2023-11-19T00:28:35;49.46;38.76;66.37;;
76338;Laerm;20358;50.272;19.026;2023-11-19T00:31:49;44.91;35.26;58.25;;
76338;Laerm;20358;50.272;19.026;2023-11-19T00:34:57;43.96;35.67;58.21;;
76338;Laerm;20358;50.272;19.026;2023-11-19T00:38:08;45.66;35.82;61.29;;
76338;Laerm;20358;50.272;19.026;2023-11-19T00:41:17;46.11;35.76;61.61;;
76338;Laerm;20358;50.272;19.026;2023-11-19T00:44:25;45.03;36.13;58.23;;
76338;Laerm;20358;50.272;19.026;2023-11-19T00:47:41;44.98;35.70;56.59;;
76338;Laerm;20358;50.272;19.026;2023-11-19T00:50:52;45.32;35.66;61.78;;
76338;Laerm;20358;50.272;19.026;2023-11-19T00:54:04;47.22;35.74;63.57;;
76338;Laerm;20358;50.272;19.026;2023-11-19T00:57:13;44.32;35.77;61.27;;
76338;Laerm;20358;50.272;19.026;2023-11-19T01:00:25;42.51;35.39;56.75;;
76338;Laerm;20358;50.272;19.026;2023-11-19T01:03:32;43.42;35.69;55.09;;
76338;Laerm;20358;50.272;19.026;2023-11-19T01:06:42;45.38;36.65;61.11;;
76338;Laerm;20358;50.272;19.026;2023-11-19T01:09:55;43.54;35.43;60.61;;
76338;Laerm;20358;50.272;19.026;2023-11-19T01:13:08;44.79;35.96;61.95;;
76338;Laerm;20358;50.272;19.026;2023-11-19T01:16:16;45.85;36.51;57.41;;
76338;Laerm;20358;50.272;19.026;2023-11-19T01:19:30;45.39;35.93;62.01;;
76338;Laerm;20358;50.272;19.026;2023-11-19T01:22:39;45.20;36.69;58.14;;
76338;Laerm;20358;50.272;19.026;2023-11-19T01:25:52;46.49;36.52;58.40;;
76338;Laerm;20358;50.272;19.026;2023-11-19T01:29:03;41.70;35.62;56.76;;
76338;Laerm;20358;50.272;19.026;2023-11-19T01:32:11;44.64;36.22;58.32;;
76338;Laerm;20358;50.272;19.026;2023-11-19T01:35:27;43.85;36.44;58.78;;
76338;Laerm;20358;50.272;19.026;2023-11-19T01:38:35;44.41;36.50;60.50;;
76338;Laerm;20358;50.272;19.026;2023-11-19T01:41:45;41.29;35.43;61.39;;
76338;Laerm;20358;50.272;19.026;2023-11-19T01:44:59;44.50;35.70;58.77;;
76338;Laerm;20358;50.272;19.026;2023-11-19T01:48:06;43.50;35.66;59.15;;
76338;Laerm;20358;50.272;19.026;2023-11-19T01:51:17;45.10;35.83;58.50;;
76338;Laerm;20358;50.272;19.026;2023-11-19T01:54:24;44.69;36.12;59.17;;
76338;Laerm;20358;50.272;19.026;2023-11-19T01:57:40;42.87;35.91;59.74;;
76338;Laerm;20358;50.272;19.026;2023-11-19T02:00:49;45.63;37.24;60.55;;
76338;Laerm;20358;50.272;19.026;2023-11-19T02:03:59;44.78;36.16;59.55;;
76338;Laerm;20358;50.272;19.026;2023-11-19T02:07:13;46.10;36.11;59.56;;
76338;Laerm;20358;50.272;19.026;2023-11-19T02:10:22;43.90;35.81;57.48;;
76338;Laerm;20358;50.272;19.026;2023-11-19T02:13:35;44.40;36.47;59.39;;
76338;Laerm;20358;50.272;19.026;2023-11-19T02:16:50;44.03;35.93;61.72;;
76338;Laerm;20358;50.272;19.026;2023-11-19T02:20:01;42.58;36.07;55.51;;
76338;Laerm;20358;50.272;19.026;2023-11-19T02:23:14;45.98;36.40;61.96;;
76338;Laerm;20358;50.272;19.026;2023-11-19T02:26:36;45.01;36.55;65.78;;
76338;Laerm;20358;50.272;19.026;2023-11-19T02:29:53;46.30;36.66;62.50;;
76338;Laerm;20358;50.272;19.026;2023-11-19T02:33:08;45.00;36.43;59.25;;
76338;Laerm;20358;50.272;19.026;2023-11-19T02:36:22;45.46;35.97;60.71;;
76338;Laerm;20358;50.272;19.026;2023-11-19T02:39:32;43.33;36.21;59.19;;
76338;Laerm;20358;50.272;19.026;2023-11-19T02:42:41;45.68;36.26;60.70;;
76338;Laerm;20358;50.272;19.026;2023-11-19T02:45:53;43.59;36.07;58.48;;
76338;Laerm;20358;50.272;19.026;2023-11-19T02:49:01;39.85;36.00;53.79;;
76338;Laerm;20358;50.272;19.026;2023-11-19T02:52:16;43.81;36.52;58.43;;
76338;Laerm;20358;50.272;19.026;2023-11-19T02:55:25;44.63;36.53;60.22;;
76338;Laerm;20358;50.272;19.026;2023-11-19T02:58:47;43.79;36.19;64.21;;
76338;Laerm;20358;50.272;19.026;2023-11-19T03:01:59;44.03;36.41;57.89;;
76338;Laerm;20358;50.272;19.026;2023-11-19T03:05:11;42.87;36.33;58.35;;
76338;Laerm;20358;50.272;19.026;2023-11-19T03:08:23;43.53;36.36;61.43;;
76338;Laerm;20358;50.272;19.026;2023-11-19T03:11:33;40.83;36.46;53.74;;
76338;Laerm;20358;50.272;19.026;2023-11-19T03:14:41;43.47;36.30;60.43;;
76338;Laerm;20358;50.272;19.026;2023-11-19T03:17:53;44.48;36.25;62.77;;
76338;Laerm;20358;50.272;19.026;2023-11-19T03:21:01;46.07;36.53;62.04;;
76338;Laerm;20358;50.272;19.026;2023-11-19T03:24:09;42.50;36.37;60.42;;
76338;Laerm;20358;50.272;19.026;2023-11-19T03:27:16;44.41;36.26;57.83;;
76338;Laerm;20358;50.272;19.026;2023-11-19T03:30:31;43.05;36.49;52.27;;
76338;Laerm;20358;50.272;19.026;2023-11-19T03:33:41;44.48;36.59;57.07;;
76338;Laerm;20358;50.272;19.026;2023-11-19T03:36:49;40.69;36.19;57.70;;
76338;Laerm;20358;50.272;19.026;2023-11-19T03:39:58;44.60;36.00;62.46;;
76338;Laerm;20358;50.272;19.026;2023-11-19T03:43:08;41.40;35.95;55.27;;
76338;Laerm;20358;50.272;19.026;2023-11-19T03:46:19;42.63;36.09;60.40;;
76338;Laerm;20358;50.272;19.026;2023-11-19T03:49:35;43.80;36.41;56.44;;
76338;Laerm;20358;50.272;19.026;2023-11-19T03:52:50;44.84;36.07;59.02;;
76338;Laerm;20358;50.272;19.026;2023-11-19T03:55:59;42.75;36.41;54.76;;
76338;Laerm;20358;50.272;19.026;2023-11-19T03:59:10;46.04;36.60;61.01;;
76338;Laerm;20358;50.272;19.026;2023-11-19T04:02:23;43.02;36.48;56.41;;
76338;Laerm;20358;50.272;19.026;2023-11-19T04:05:36;45.56;36.60;59.63;;
76338;Laerm;20358;50.272;19.026;2023-11-19T04:08:46;44.79;36.76;60.15;;
76338;Laerm;20358;50.272;19.026;2023-11-19T04:11:57;42.28;36.48;55.91;;
76338;Laerm;20358;50.272;19.026;2023-11-19T04:15:14;45.63;36.79;59.08;;
76338;Laerm;20358;50.272;19.026;2023-11-19T04:18:27;44.15;36.47;59.91;;
76338;Laerm;20358;50.272;19.026;2023-11-19T04:21:43;46.82;36.97;59.69;;
76338;Laerm;20358;50.272;19.026;2023-11-19T04:24:51;45.93;36.07;62.86;;
76338;Laerm;20358;50.272;19.026;2023-11-19T04:28:01;45.49;36.69;61.44;;
76338;Laerm;20358;50.272;19.026;2023-11-19T04:31:09;43.02;36.59;58.72;;
76338;Laerm;20358;50.272;19.026;2023-11-19T04:34:19;46.33;35.82;61.77;;
76338;Laerm;20358;50.272;19.026;2023-11-19T04:37:30;45.47;36.32;57.68;;
76338;Laerm;20358;50.272;19.026;2023-11-19T04:40:39;44.73;37.23;60.71;;
76338;Laerm;20358;50.272;19.026;2023-11-19T04:43:45;45.44;36.59;58.70;;
76338;Laerm;20358;50.272;19.026;2023-11-19T04:46:53;45.33;36.61;60.15;;
76338;Laerm;20358;50.272;19.026;2023-11-19T04:50:00;45.14;36.40;57.92;;
76338;Laerm;20358;50.272;19.026;2023-11-19T04:53:12;44.77;37.10;57.05;;
76338;Laerm;20358;50.272;19.026;2023-11-19T04:56:27;46.09;36.39;59.20;;
76338;Laerm;20358;50.272;19.026;2023-11-19T04:59:44;43.53;36.35;59.80;;
76338;Laerm;20358;50.272;19.026;2023-11-19T05:02:53;44.94;36.46;59.82;;
76338;Laerm;20358;50.272;19.026;2023-11-19T05:06:04;45.86;36.76;63.03;;
76338;Laerm;20358;50.272;19.026;2023-11-19T05:09:15;44.59;37.12;58.89;;
76338;Laerm;20358;50.272;19.026;2023-11-19T05:12:24;47.11;36.65;63.00;;
76338;Laerm;20358;50.272;19.026;2023-11-19T05:15:31;45.61;36.43;61.96;;
76338;Laerm;20358;50.272;19.026;2023-11-19T05:18:39;43.97;36.73;59.01;;
76338;Laerm;20358;50.272;19.026;2023-11-19T05:21:46;46.59;36.23;61.69;;
76338;Laerm;20358;50.272;19.026;2023-11-19T05:25:00;45.80;36.82;58.23;;
76338;Laerm;20358;50.272;19.026;2023-11-19T05:28:09;44.62;36.94;63.07;;
76338;Laerm;20358;50.272;19.026;2023-11-19T05:31:19;43.57;36.43;57.64;;
76338;Laerm;20358;50.272;19.026;2023-11-19T05:34:28;42.89;36.62;54.13;;
76338;Laerm;20358;50.272;19.026;2023-11-19T05:37:36;43.91;37.34;55.55;;
76338;Laerm;20358;50.272;19.026;2023-11-19T05:40:46;44.19;36.49;61.00;;
76338;Laerm;20358;50.272;19.026;2023-11-19T05:43:55;45.18;36.96;60.44;;
76338;Laerm;20358;50.272;19.026;2023-11-19T05:47:04;49.11;37.39;64.17;;
76338;Laerm;20358;50.272;19.026;2023-11-19T05:50:12;48.69;37.10;64.57;;
76338;Laerm;20358;50.272;19.026;2023-11-19T05:53:20;45.52;37.15;58.18;;
76338;Laerm;20358;50.272;19.026;2023-11-19T05:56:32;42.86;36.63;61.41;;
76338;Laerm;20358;50.272;19.026;2023-11-19T05:59:41;44.86;36.87;62.50;;
76338;Laerm;20358;50.272;19.026;2023-11-19T06:02:50;45.22;36.83;63.03;;
76338;Laerm;20358;50.272;19.026;2023-11-19T06:05:59;43.08;36.91;57.79;;
76338;Laerm;20358;50.272;19.026;2023-11-19T06:09:08;44.89;37.21;57.81;;
76338;Laerm;20358;50.272;19.026;2023-11-19T06:12:20;46.63;38.18;62.04;;
76338;Laerm;20358;50.272;19.026;2023-11-19T06:15:29;43.45;37.48;55.22;;
76338;Laerm;20358;50.272;19.026;2023-11-19T06:18:44;42.42;37.48;55.61;;
76338;Laerm;20358;50.272;19.026;2023-11-19T06:22:00;43.18;36.84;54.24;;
76338;Laerm;20358;50.272;19.026;2023-11-19T06:25:17;46.47;39.04;59.68;;
76338;Laerm;20358;50.272;19.026;2023-11-19T06:28:28;45.64;38.42;59.24;;
76338;Laerm;20358;50.272;19.026;2023-11-19T06:31:36;43.84;37.66;58.04;;
76338;Laerm;20358;50.272;19.026;2023-11-19T06:34:46;46.94;38.87;61.65;;
76338;Laerm;20358;50.272;19.026;2023-11-19T06:37:56;46.88;37.63;62.34;;
76338;Laerm;20358;50.272;19.026;2023-11-19T06:41:08;47.54;37.70;71.14;;
76338;Laerm;20358;50.272;19.026;2023-11-19T06:44:18;45.14;37.90;59.69;;
76338;Laerm;20358;50.272;19.026;2023-11-19T06:47:27;45.69;37.08;57.63;;
76338;Laerm;20358;50.272;19.026;2023-11-19T06:50:34;45.67;37.03;60.85;;
76338;Laerm;20358;50.272;19.026;2023-11-19T06:53:46;50.04;37.75;66.24;;
76338;Laerm;20358;50.272;19.026;2023-11-19T06:56:54;48.41;38.26;64.72;;
76338;Laerm;20358;50.272;19.026;2023-11-19T07:00:07;45.85;37.06;60.04;;
76338;Laerm;20358;50.272;19.026;2023-11-19T07:03:15;47.52;37.20;63.58;;
76338;Laerm;20358;50.272;19.026;2023-11-19T07:06:26;47.88;37.07;64.22;;
76338;Laerm;20358;50.272;19.026;2023-11-19T07:09:39;49.03;37.42;68.05;;
76338;Laerm;20358;50.272;19.026;2023-11-19T07:12:48;45.83;37.32;60.80;;
76338;Laerm;20358;50.272;19.026;2023-11-19T07:16:02;46.15;37.75;59.01;;
76338;Laerm;20358;50.272;19.026;2023-11-19T07:19:15;45.50;36.93;58.45;;
76338;Laerm;20358;50.272;19.026;2023-11-19T07:22:26;46.33;36.44;58.64;;
76338;Laerm;20358;50.272;19.026;2023-11-19T07:25:36;46.43;36.60;61.42;;
76338;Laerm;20358;50.272;19.026;2023-11-19T07:28:44;46.65;37.80;62.02;;
76338;Laerm;20358;50.272;19.026;2023-11-19T07:31:57;46.82;37.43;58.89;;
76338;Laerm;20358;50.272;19.026;2023-11-19T07:35:07;46.12;37.48;67.58;;
76338;Laerm;20358;50.272;19.026;2023-11-19T07:38:16;47.38;37.74;66.56;;
76338;Laerm;20358;50.272;19.026;2023-11-19T07:41:31;45.93;37.70;64.25;;
76338;Laerm;20358;50.272;19.026;2023-11-19T07:44:44;46.97;38.85;65.98;;
76338;Laerm;20358;50.272;19.026;2023-11-19T07:47:54;46.77;38.89;67.43;;
76338;Laerm;20358;50.272;19.026;2023-11-19T07:51:07;47.86;37.98;67.91;;
76338;Laerm;20358;50.272;19.026;2023-11-19T07:54:16;48.49;38.97;62.89;;
76338;Laerm;20358;50.272;19.026;2023-11-19T07:57:26;46.19;38.22;66.10;;
76338;Laerm;20358;50.272;19.026;2023-11-19T08:00:35;46.79;37.90;55.94;;
76338;Laerm;20358;50.272;19.026;2023-11-19T08:03:46;54.45;39.04;76.46;;
76338;Laerm;20358;50.272;19.026;2023-11-19T08:06:59;47.00;39.58;62.05;;
76338;Laerm;20358;50.272;19.026;2023-11-19T08:10:10;45.35;37.79;58.62;;
76338;Laerm;20358;50.272;19.026;2023-11-19T08:13:19;44.99;37.95;59.97;;
76338;Laerm;20358;50.272;19.026;2023-11-19T08:16:29;46.49;38.41;60.11;;
76338;Laerm;20358;50.272;19.026;2023-11-19T08:19:40;45.17;37.72;56.23;;
76338;Laerm;20358;50.272;19.026;2023-11-19T08:22:49;46.74;38.29;60.24;;
76338;Laerm;20358;50.272;19.026;2023-11-19T08:25:56;47.38;38.70;61.36;;
76338;Laerm;20358;50.272;19.026;2023-11-19T08:29:07;46.86;37.82;59.35;;
76338;Laerm;20358;50.272;19.026;2023-11-19T08:32:19;46.10;38.18;59.81;;
76338;Laerm;20358;50.272;19.026;2023-11-19T08:35:32;46.02;38.80;59.18;;
76338;Laerm;20358;50.272;19.026;2023-11-19T08:38:41;47.89;39.20;61.53;;
76338;Laerm;20358;50.272;19.026;2023-11-19T08:41:49;46.55;38.46;57.39;;
76338;Laerm;20358;50.272;19.026;2023-11-19T08:44:56;47.48;38.62;59.52;;
76338;Laerm;20358;50.272;19.026;2023-11-19T08:48:05;47.59;38.39;56.84;;
76338;Laerm;20358;50.272;19.026;2023-11-19T08:51:15;48.15;39.36;64.43;;
76338;Laerm;20358;50.272;19.026;2023-11-19T08:54:23;48.73;39.87;61.15;;
76338;Laerm;20358;50.272;19.026;2023-11-19T08:57:30;47.77;38.68;57.92;;
76338;Laerm;20358;50.272;19.026;2023-11-19T09:00:37;46.03;38.46;59.43;;
76338;Laerm;20358;50.272;19.026;2023-11-19T09:03:45;46.78;38.81;57.15;;
76338;Laerm;20358;50.272;19.026;2023-11-19T09:06:57;46.22;37.74;56.68;;
76338;Laerm;20358;50.272;19.026;2023-11-19T09:10:07;47.52;38.49;59.77;;
76338;Laerm;20358;50.272;19.026;2023-11-19T09:13:17;46.15;39.31;60.62;;
76338;Laerm;20358;50.272;19.026;2023-11-19T09:16:23;46.32;39.00;56.64;;
76338;Laerm;20358;50.272;19.026;2023-11-19T09:19:33;47.75;38.94;62.25;;
76338;Laerm;20358;50.272;19.026;2023-11-19T09:22:42;48.03;37.70;63.38;;
76338;Laerm;20358;50.272;19.026;2023-11-19T09:25:50;48.77;38.24;59.76;;
76338;Laerm;20358;50.272;19.026;2023-11-19T09:28:57;47.66;38.49;62.13;;
76338;Laerm;20358;50.272;19.026;2023-11-19T09:32:09;46.12;38.89;56.40;;
76338;Laerm;20358;50.272;19.026;2023-11-19T09:35:16;48.41;38.77;57.17;;
76338;Laerm;20358;50.272;19.026;2023-11-19T09:38:27;49.08;39.50;57.82;;
76338;Laerm;20358;50.272;19.026;2023-11-19T09:41:35;47.48;38.24;59.64;;
76338;Laerm;20358;50.272;19.026;2023-11-19T09:44:49;48.56;38.90;59.09;;
76338;Laerm;20358;50.272;19.026;2023-11-19T09:48:01;47.48;39.43;59.70;;
76338;Laerm;20358;50.272;19.026;2023-11-19T09:51:11;49.21;37.78;58.55;;
76338;Laerm;20358;50.272;19.026;2023-11-19T09:54:23;48.22;39.72;61.74;;
76338;Laerm;20358;50.272;19.026;2023-11-19T09:57:40;48.95;40.09;59.01;;
76338;Laerm;20358;50.272;19.026;2023-11-19T10:00:50;49.31;40.60;60.84;;
76338;Laerm;20358;50.272;19.026;2023-11-19T10:04:30;48.34;39.65;59.68;;
76338;Laerm;20358;50.272;19.026;2023-11-19T10:07:40;49.21;38.82;58.76;;
76338;Laerm;20358;50.272;19.026;2023-11-19T10:10:51;47.04;38.45;59.64;;
76338;Laerm;20358;50.272;19.026;2023-11-19T10:14:00;48.40;40.44;59.87;;
76338;Laerm;20358;50.272;19.026;2023-11-19T10:17:09;49.68;40.58;59.83;;
76338;Laerm;20358;50.272;19.026;2023-11-19T10:20:19;48.16;38.17;58.80;;
76338;Laerm;20358;50.272;19.026;2023-11-19T10:23:27;49.95;39.11;59.61;;
76338;Laerm;20358;50.272;19.026;2023-11-19T10:26:38;48.97;39.36;59.65;;
76338;Laerm;20358;50.272;19.026;2023-11-19T10:29:48;48.89;39.06;60.24;;
76338;Laerm;20358;50.272;19.026;2023-11-19T10:33:09;47.97;39.51;61.71;;
76338;Laerm;20358;50.272;19.026;2023-11-19T10:36:23;49.24;40.70;61.29;;
76338;Laerm;20358;50.272;19.026;2023-11-19T10:39:52;48.49;38.38;60.42;;
76338;Laerm;20358;50.272;19.026;2023-11-19T10:43:06;48.39;37.80;62.91;;
76338;Laerm;20358;50.272;19.026;2023-11-19T10:46:15;57.34;40.19;81.80;;
76338;Laerm;20358;50.272;19.026;2023-11-19T10:49:28;49.15;37.58;67.10;;
76338;Laerm;20358;50.272;19.026;2023-11-19T10:52:43;47.83;38.88;60.99;;
76338;Laerm;20358;50.272;19.026;2023-11-19T10:55:58;49.62;36.54;60.05;;
76338;Laerm;20358;50.272;19.026;2023-11-19T10:59:14;50.87;38.52;60.83;;
76338;Laerm;20358;50.272;19.026;2023-11-19T11:02:33;48.91;38.15;64.75;;
76338;Laerm;20358;50.272;19.026;2023-11-19T11:05:52;49.39;38.86;59.06;;
76338;Laerm;20358;50.272;19.026;2023-11-19T11:09:02;48.75;37.97;60.72;;
76338;Laerm;20358;50.272;19.026;2023-11-19T11:12:11;49.41;38.30;65.10;;
76338;Laerm;20358;50.272;19.026;2023-11-19T11:15:25;48.52;38.31;68.65;;
76338;Laerm;20358;50.272;19.026;2023-11-19T11:18:36;49.81;38.52;67.49;;
76338;Laerm;20358;50.272;19.026;2023-11-19T11:21:53;49.30;38.22;65.76;;
76338;Laerm;20358;50.272;19.026;2023-11-19T11:25:31;50.01;39.32;63.83;;
76338;Laerm;20358;50.272;19.026;2023-11-19T11:28:52;50.31;40.18;61.71;;
76338;Laerm;20358;50.272;19.026;2023-11-19T11:32:30;50.84;39.34;67.81;;
76338;Laerm;20358;50.272;19.026;2023-11-19T11:35:58;51.19;40.95;68.83;;
76338;Laerm;20358;50.272;19.026;2023-11-19T11:39:17;50.39;41.25;68.80;;
76338;Laerm;20358;50.272;19.026;2023-11-19T11:42:36;51.31;40.19;68.35;;
76338;Laerm;20358;50.272;19.026;2023-11-19T11:45:44;52.38;40.58;70.72;;
76338;Laerm;20358;50.272;19.026;2023-11-19T11:48:57;53.32;42.62;79.19;;
76338;Laerm;20358;50.272;19.026;2023-11-19T11:52:08;53.02;41.91;72.05;;
76338;Laerm;20358;50.272;19.026;2023-11-19T11:55:18;53.47;43.67;70.40;;
76338;Laerm;20358;50.272;19.026;2023-11-19T11:58:32;54.44;43.66;70.32;;
76338;Laerm;20358;50.272;19.026;2023-11-19T12:01:58;54.53;43.47;70.30;;
76338;Laerm;20358;50.272;19.026;2023-11-19T12:05:11;52.67;42.59;69.26;;
76338;Laerm;20358;50.272;19.026;2023-11-19T12:08:20;53.32;42.10;67.78;;
76338;Laerm;20358;50.272;19.026;2023-11-19T12:11:34;52.43;41.37;70.81;;
76338;Laerm;20358;50.272;19.026;2023-11-19T12:15:05;52.06;41.11;68.06;;
76338;Laerm;20358;50.272;19.026;2023-11-19T12:18:20;52.73;41.14;70.25;;
76338;Laerm;20358;50.272;19.026;2023-11-19T12:21:32;52.30;41.65;76.19;;
76338;Laerm;20358;50.272;19.026;2023-11-19T12:24:42;51.62;40.63;67.83;;
76338;Laerm;20358;50.272;19.026;2023-11-19T12:27:53;52.24;39.87;67.24;;
76338;Laerm;20358;50.272;19.026;2023-11-19T12:31:12;51.82;41.53;65.90;;
76338;Laerm;20358;50.272;19.026;2023-11-19T12:34:21;49.20;40.00;60.16;;
76338;Laerm;20358;50.272;19.026;2023-11-19T12:37:43;50.85;40.62;61.12;;
76338;Laerm;20358;50.272;19.026;2023-11-19T12:41:04;50.69;39.74;61.96;;
76338;Laerm;20358;50.272;19.026;2023-11-19T12:44:14;52.15;41.59;62.19;;
76338;Laerm;20358;50.272;19.026;2023-11-19T12:47:22;50.41;40.21;63.30;;
76338;Laerm;20358;50.272;19.026;2023-11-19T12:50:54;51.69;41.05;61.54;;
76338;Laerm;20358;50.272;19.026;2023-11-19T12:54:07;50.77;41.97;61.41;;
76338;Laerm;20358;50.272;19.026;2023-11-19T12:57:17;50.65;40.75;62.89;;
76338;Laerm;20358;50.272;19.026;2023-11-19T13:00:27;51.48;42.73;62.60;;
76338;Laerm;20358;50.272;19.026;2023-11-19T13:03:37;51.45;40.80;61.47;;
76338;Laerm;20358;50.272;19.026;2023-11-19T13:06:46;51.26;41.47;63.52;;
76338;Laerm;20358;50.272;19.026;2023-11-19T13:10:05;51.81;41.03;63.59;;
76338;Laerm;20358;50.272;19.026;2023-11-19T13:13:12;50.73;41.91;62.76;;
76338;Laerm;20358;50.272;19.026;2023-11-19T13:16:20;51.25;41.92;62.05;;
76338;Laerm;20358;50.272;19.026;2023-11-19T13:19:27;50.49;41.59;60.99;;
76338;Laerm;20358;50.272;19.026;2023-11-19T13:22:35;51.99;44.56;61.17;;
76338;Laerm;20358;50.272;19.026;2023-11-19T13:25:45;53.45;44.97;70.10;;
76338;Laerm;20358;50.272;19.026;2023-11-19T13:28:53;53.60;45.49;70.80;;
76338;Laerm;20358;50.272;19.026;2023-11-19T13:32:02;51.64;42.47;69.36;;
76338;Laerm;20358;50.272;19.026;2023-11-19T13:35:10;51.73;42.39;65.36;;
76338;Laerm;20358;50.272;19.026;2023-11-19T13:38:17;52.24;43.84;68.39;;
76338;Laerm;20358;50.272;19.026;2023-11-19T13:41:28;53.88;43.62;68.21;;
76338;Laerm;20358;50.272;19.026;2023-11-19T13:44:38;53.62;43.79;67.52;;
76338;Laerm;20358;50.272;19.026;2023-11-19T13:47:47;52.48;44.28;66.98;;
76338;Laerm;20358;50.272;19.026;2023-11-19T13:51:01;52.71;42.50;69.20;;
76338;Laerm;20358;50.272;19.026;2023-11-19T13:54:21;60.22;47.01;81.57;;
76338;Laerm;20358;50.272;19.026;2023-11-19T13:57:33;53.85;43.31;68.28;;
76338;Laerm;20358;50.272;19.026;2023-11-19T14:00:44;53.00;42.32;68.61;;
76338;Laerm;20358;50.272;19.026;2023-11-19T14:03:52;51.73;42.13;65.07;;
76338;Laerm;20358;50.272;19.026;2023-11-19T14:07:00;52.48;43.10;65.93;;
76338;Laerm;20358;50.272;19.026;2023-11-19T14:10:10;52.41;42.70;67.84;;
76338;Laerm;20358;50.272;19.026;2023-11-19T14:13:22;51.56;42.10;65.61;;
76338;Laerm;20358;50.272;19.026;2023-11-19T14:16:29;51.50;43.66;67.46;;
76338;Laerm;20358;50.272;19.026;2023-11-19T14:19:37;52.91;41.66;67.74;;
76338;Laerm;20358;50.272;19.026;2023-11-19T14:22:47;51.55;42.32;64.09;;
76338;Laerm;20358;50.272;19.026;2023-11-19T14:25:56;51.96;44.98;63.29;;
76338;Laerm;20358;50.272;19.026;2023-11-19T14:29:06;52.46;43.39;63.28;;
76338;Laerm;20358;50.272;19.026;2023-11-19T14:32:17;52.03;41.98;64.30;;
76338;Laerm;20358;50.272;19.026;2023-11-19T14:35:25;54.32;42.94;71.73;;
76338;Laerm;20358;50.272;19.026;2023-11-19T14:38:39;52.01;42.28;61.17;;
76338;Laerm;20358;50.272;19.026;2023-11-19T14:41:47;52.08;43.28;60.41;;
76338;Laerm;20358;50.272;19.026;2023-11-19T14:45:01;52.67;43.05;61.19;;
76338;Laerm;20358;50.272;19.026;2023-11-19T14:48:09;53.43;42.91;69.90;;
76338;Laerm;20358;50.272;19.026;2023-11-19T14:51:18;53.06;44.12;62.16;;
76338;Laerm;20358;50.272;19.026;2023-11-19T14:54:25;52.60;43.56;60.69;;
76338;Laerm;20358;50.272;19.026;2023-11-19T14:57:34;52.17;43.48;60.61;;
76338;Laerm;20358;50.272;19.026;2023-11-19T15:00:49;53.40;43.28;64.61;;
76338;Laerm;20358;50.272;19.026;2023-11-19T15:04:04;52.57;43.32;62.74;;
76338;Laerm;20358;50.272;19.026;2023-11-19T15:07:13;54.31;42.71;68.77;;
76338;Laerm;20358;50.272;19.026;2023-11-19T15:10:42;53.61;44.85;64.00;;
76338;Laerm;20358;50.272;19.026;2023-11-19T15:13:51;53.57;46.60;63.81;;
76338;Laerm;20358;50.272;19.026;2023-11-19T15:17:03;53.63;46.16;63.80;;
76338;Laerm;20358;50.272;19.026;2023-11-19T15:20:13;55.03;45.75;78.42;;
76338;Laerm;20358;50.272;19.026;2023-11-19T15:23:24;53.10;44.29;65.21;;
76338;Laerm;20358;50.272;19.026;2023-11-19T15:26:38;53.63;44.67;64.01;;
76338;Laerm;20358;50.272;19.026;2023-11-19T15:29:48;52.51;44.05;62.24;;
76338;Laerm;20358;50.272;19.026;2023-11-19T15:33:01;51.91;42.44;62.40;;
76338;Laerm;20358;50.272;19.026;2023-11-19T15:36:16;53.08;43.35;65.01;;
76338;Laerm;20358;50.272;19.026;2023-11-19T15:39:25;52.43;44.22;67.09;;
76338;Laerm;20358;50.272;19.026;2023-11-19T15:42:34;52.70;44.22;64.74;;
76338;Laerm;20358;50.272;19.026;2023-11-19T15:45:41;54.23;45.11;78.29;;
76338;Laerm;20358;50.272;19.026;2023-11-19T15:48:51;53.98;43.79;70.61;;
76338;Laerm;20358;50.272;19.026;2023-11-19T15:51:58;54.54;46.43;74.35;;
76338;Laerm;20358;50.272;19.026;2023-11-19T15:55:07;53.06;45.31;69.66;;
76338;Laerm;20358;50.272;19.026;2023-11-19T15:58:15;53.70;45.01;68.87;;
76338;Laerm;20358;50.272;19.026;2023-11-19T16:01:24;53.42;43.47;71.72;;
76338;Laerm;20358;50.272;19.026;2023-11-19T16:04:36;54.04;44.11;72.87;;
76338;Laerm;20358;50.272;19.026;2023-11-19T16:07:45;51.64;44.98;63.50;;
76338;Laerm;20358;50.272;19.026;2023-11-19T16:11:01;53.16;42.87;63.61;;
76338;Laerm;20358;50.272;19.026;2023-11-19T16:14:19;53.30;42.99;67.66;;
76338;Laerm;20358;50.272;19.026;2023-11-19T16:17:32;53.46;45.27;62.36;;
76338;Laerm;20358;50.272;19.026;2023-11-19T16:20:48;52.00;43.43;60.86;;
76338;Laerm;20358;50.272;19.026;2023-11-19T16:23:55;52.18;42.87;63.00;;
76338;Laerm;20358;50.272;19.026;2023-11-19T16:27:10;52.59;42.10;62.60;;
76338;Laerm;20358;50.272;19.026;2023-11-19T16:30:20;52.14;42.37;66.01;;
76338;Laerm;20358;50.272;19.026;2023-11-19T16:33:28;53.32;45.25;76.48;;
76338;Laerm;20358;50.272;19.026;2023-11-19T16:36:37;52.70;46.21;68.33;;
76338;Laerm;20358;50.272;19.026;2023-11-19T16:39:47;52.05;44.42;68.37;;
76338;Laerm;20358;50.272;19.026;2023-11-19T16:42:54;51.97;44.42;65.08;;
76338;Laerm;20358;50.272;19.026;2023-11-19T16:46:05;52.01;43.51;70.74;;
76338;Laerm;20358;50.272;19.026;2023-11-19T16:49:20;51.32;45.02;61.04;;
76338;Laerm;20358;50.272;19.026;2023-11-19T16:52:32;52.85;45.47;72.62;;
76338;Laerm;20358;50.272;19.026;2023-11-19T16:55:43;51.47;45.11;62.47;;
76338;Laerm;20358;50.272;19.026;2023-11-19T16:58:52;50.79;45.23;59.29;;
76338;Laerm;20358;50.272;19.026;2023-11-19T17:02:01;52.27;44.53;71.06;;
76338;Laerm;20358;50.272;19.026;2023-11-19T17:05:13;50.91;43.43;69.13;;
76338;Laerm;20358;50.272;19.026;2023-11-19T17:08:27;52.55;44.09;69.86;;
76338;Laerm;20358;50.272;19.026;2023-11-19T17:11:37;53.91;45.28;75.51;;
76338;Laerm;20358;50.272;19.026;2023-11-19T17:14:46;50.56;45.30;62.23;;
76338;Laerm;20358;50.272;19.026;2023-11-19T17:17:58;51.34;44.87;61.82;;
76338;Laerm;20358;50.272;19.026;2023-11-19T17:21:07;49.77;43.23;65.00;;
76338;Laerm;20358;50.272;19.026;2023-11-19T17:24:22;50.71;42.62;64.50;;
76338;Laerm;20358;50.272;19.026;2023-11-19T17:27:31;51.10;44.69;69.29;;
76338;Laerm;20358;50.272;19.026;2023-11-19T17:30:40;49.99;41.62;58.04;;
76338;Laerm;20358;50.272;19.026;2023-11-19T17:33:49;50.73;43.32;61.69;;
76338;Laerm;20358;50.272;19.026;2023-11-19T17:36:59;51.96;42.14;75.51;;